Time;durP1;ratioP1;P1;durP2;ratioP2;P2;SDS_P1;SDS_P2;PMS_P1;PMS_P2;Temp;Humidity;BMP_temperature;BMP_pressure;BME280_temperature;BME280_humidity;BME280_pressure;Samples;Min_cycle;Max_cycle;Signal;HPM_P1;HPM_P2
2023/09/26 00:00:21;;;;;;;56.80;2.90;;;;;;;;;;5144613;27;20484;-71
2023/09/26 00:02:50;;;;;;;57.00;2.80;;;;;;;;;;5144237;27;20474;-70
2023/09/26 00:05:18;;;;;;;56.77;2.57;;;;;;;;;;5136270;27;20508;-71
2023/09/26 00:07:45;;;;;;;58.03;2.70;;;;;;;;;;5135382;27;20468;-70
2023/09/26 00:10:13;;;;;;;58.50;3.10;;;;;;;;;;5139810;27;21011;-70
2023/09/26 00:12:40;;;;;;;58.00;4.00;;;;;;;;;;5145430;27;20483;-70
2023/09/26 00:15:08;;;;;;;56.70;2.70;;;;;;;;;;5145470;27;20456;-71
2023/09/26 00:17:36;;;;;;;56.70;2.70;;;;;;;;;;5144361;27;20460;-70
2023/09/26 00:20:15;;;;;;;56.97;3.10;;;;;;;;;;5145189;27;20484;-70
2023/09/26 00:22:42;;;;;;;57.73;3.00;;;;;;;;;;5140422;27;20468;-71
2023/09/26 00:25:11;;;;;;;56.90;2.60;;;;;;;;;;5135672;27;20441;-70
2023/09/26 00:27:38;;;;;;;57.27;3.37;;;;;;;;;;5134653;27;20521;-71
2023/09/26 00:30:06;;;;;;;56.77;2.60;;;;;;;;;;5133711;27;20440;-71
2023/09/26 00:32:35;;;;;;;56.67;2.50;;;;;;;;;;5134852;27;20531;-71
2023/09/26 00:35:02;;;;;;;57.00;3.07;;;;;;;;;;5134648;27;20865;-71
2023/09/26 00:37:31;;;;;;;61.10;3.37;;;;;;;;;;5134273;27;20523;-71
2023/09/26 00:39:58;;;;;;;56.60;2.40;;;;;;;;;;5134097;27;20480;-70
2023/09/26 00:42:25;;;;;;;57.50;3.00;;;;;;;;;;5134423;27;20440;-71
2023/09/26 00:44:52;;;;;;;58.27;3.17;;;;;;;;;;5134334;27;20444;-71
2023/09/26 00:47:19;;;;;;;57.10;3.03;;;;;;;;;;5134273;27;20465;-70
2023/09/26 00:49:47;;;;;;;60.77;3.20;;;;;;;;;;5133946;27;20449;-71
2023/09/26 00:52:14;;;;;;;58.90;3.60;;;;;;;;;;5134192;27;20451;-70
2023/09/26 00:54:42;;;;;;;57.17;3.00;;;;;;;;;;5133931;27;20452;-70
2023/09/26 00:57:10;;;;;;;57.00;2.67;;;;;;;;;;5133725;27;20557;-70
2023/09/26 00:59:39;;;;;;;56.87;2.50;;;;;;;;;;5133559;27;20443;-71
2023/09/26 01:02:06;;;;;;;57.37;2.63;;;;;;;;;;5133602;27;20449;-71
2023/09/26 01:04:34;;;;;;;56.87;2.70;;;;;;;;;;5133890;27;20445;-71
2023/09/26 01:07:02;;;;;;;56.53;2.50;;;;;;;;;;5133561;27;21013;-71
2023/09/26 01:09:29;;;;;;;57.23;2.60;;;;;;;;;;5133545;27;20821;-71
2023/09/26 01:11:58;;;;;;;56.70;2.50;;;;;;;;;;5133485;27;20795;-71
2023/09/26 01:14:25;;;;;;;57.50;3.23;;;;;;;;;;5133794;27;20524;-71
2023/09/26 01:16:55;;;;;;;57.30;3.20;;;;;;;;;;5133579;27;20444;-70
2023/09/26 01:19:22;;;;;;;56.70;2.87;;;;;;;;;;5133940;27;20449;-71
2023/09/26 01:21:49;;;;;;;57.47;3.03;;;;;;;;;;5133163;27;20975;-71
2023/09/26 01:24:18;;;;;;;57.07;2.90;;;;;;;;;;5133383;27;20447;-70
2023/09/26 01:26:45;;;;;;;56.67;2.50;;;;;;;;;;5133046;27;20889;-70
2023/09/26 01:29:12;;;;;;;57.00;3.03;;;;;;;;;;5133415;27;20453;-70
2023/09/26 01:31:39;;;;;;;56.90;2.50;;;;;;;;;;5133261;27;20432;-71
2023/09/26 01:34:07;;;;;;;57.33;3.13;;;;;;;;;;5133239;27;20449;-70
2023/09/26 01:36:34;;;;;;;57.10;2.60;;;;;;;;;;5133263;27;20484;-70
2023/09/26 01:39:02;;;;;;;56.67;2.50;;;;;;;;;;5132824;27;20461;-71
2023/09/26 01:41:30;;;;;;;56.70;2.90;;;;;;;;;;5132684;27;20488;-70
2023/09/26 01:43:57;;;;;;;56.83;2.80;;;;;;;;;;5132568;27;20440;-71
2023/09/26 01:46:25;;;;;;;57.07;2.70;;;;;;;;;;5132820;27;20449;-70
2023/09/26 01:48:52;;;;;;;56.30;2.47;;;;;;;;;;5132234;27;20495;-71
2023/09/26 01:51:20;;;;;;;56.63;2.70;;;;;;;;;;5132805;27;20449;-71
2023/09/26 01:53:48;;;;;;;56.50;2.80;;;;;;;;;;5132738;27;20820;-71
2023/09/26 01:56:15;;;;;;;57.80;3.40;;;;;;;;;;5132787;27;20449;-69
2023/09/26 01:58:44;;;;;;;57.10;2.97;;;;;;;;;;5132453;27;21015;-69
2023/09/26 02:01:11;;;;;;;56.27;2.90;;;;;;;;;;5132427;27;20473;-69
2023/09/26 02:03:38;;;;;;;57.00;3.00;;;;;;;;;;5132699;27;20445;-68
2023/09/26 02:09:08;;;;;;;57.67;2.43;;;;;;;;;;5131828;27;20403;-69
2023/09/26 02:11:35;;;;;;;57.50;3.80;;;;;;;;;;5132571;27;20436;-69
2023/09/26 02:14:04;;;;;;;56.73;2.70;;;;;;;;;;5123938;27;20455;-69
2023/09/26 02:16:31;;;;;;;56.77;2.80;;;;;;;;;;5132463;27;20452;-69
2023/09/26 02:18:58;;;;;;;56.47;2.50;;;;;;;;;;5132216;27;20469;-69
2023/09/26 02:21:25;;;;;;;56.60;2.27;;;;;;;;;;5132350;27;20520;-69
2023/09/26 02:23:52;;;;;;;57.00;2.73;;;;;;;;;;5132115;27;20933;-70
2023/09/26 02:26:19;;;;;;;56.57;2.60;;;;;;;;;;5132257;27;20474;-70
2023/09/26 02:28:47;;;;;;;56.67;2.40;;;;;;;;;;5141481;27;20459;-70
2023/09/26 02:31:17;;;;;;;56.97;2.60;;;;;;;;;;5153291;27;20440;-69
2023/09/26 02:33:45;;;;;;;59.00;3.23;;;;;;;;;;5152883;27;20444;-69
2023/09/26 02:36:12;;;;;;;57.30;2.50;;;;;;;;;;5152748;27;20444;-69
2023/09/26 02:38:39;;;;;;;56.57;2.37;;;;;;;;;;5152406;27;20466;-70
2023/09/26 02:41:06;;;;;;;56.50;2.10;;;;;;;;;;5152544;27;20476;-70
2023/09/26 02:43:33;;;;;;;56.50;2.40;;;;;;;;;;5152808;27;20440;-69
2023/09/26 02:46:00;;;;;;;56.67;2.90;;;;;;;;;;5152488;27;20451;-69
2023/09/26 02:48:28;;;;;;;59.00;3.13;;;;;;;;;;5152505;27;20975;-69
2023/09/26 02:51:03;;;;;;;56.97;2.97;;;;;;;;;;5152528;27;20456;-70
2023/09/26 02:53:30;;;;;;;56.37;2.13;;;;;;;;;;5152144;27;20470;-70
2023/09/26 02:55:57;;;;;;;56.57;2.40;;;;;;;;;;5152275;27;20458;-69
2023/09/26 02:58:24;;;;;;;57.87;3.53;;;;;;;;;;5152213;27;21005;-70
2023/09/26 03:00:52;;;;;;;56.80;2.63;;;;;;;;;;5152295;27;20492;-69
2023/09/26 03:03:19;;;;;;;58.00;4.93;;;;;;;;;;5152698;27;20531;-70
2023/09/26 03:05:51;;;;;;;56.33;2.47;;;;;;;;;;5152394;27;20446;-70
2023/09/26 03:08:18;;;;;;;57.00;2.60;;;;;;;;;;5152039;27;20469;-69
2023/09/26 03:10:45;;;;;;;57.00;3.03;;;;;;;;;;5152502;27;20439;-69
2023/09/26 03:13:12;;;;;;;57.10;3.10;;;;;;;;;;5152547;27;20479;-69
2023/09/26 03:15:39;;;;;;;57.00;3.07;;;;;;;;;;5152407;27;20443;-70
2023/09/26 03:18:07;;;;;;;56.60;2.90;;;;;;;;;;5152177;27;20816;-69
2023/09/26 03:20:38;;;;;;;58.00;3.50;;;;;;;;;;5152044;27;20479;-69
2023/09/26 03:23:06;;;;;;;56.67;2.63;;;;;;;;;;5152269;27;20479;-69
2023/09/26 03:25:33;;;;;;;56.87;2.70;;;;;;;;;;5152309;27;20517;-69
2023/09/26 03:28:02;;;;;;;56.87;2.70;;;;;;;;;;5152166;27;20835;-69
2023/09/26 03:30:29;;;;;;;56.67;3.30;;;;;;;;;;5152138;27;20547;-69
2023/09/26 03:32:56;;;;;;;56.57;2.90;;;;;;;;;;5152566;27;20454;-69
2023/09/26 03:35:23;;;;;;;56.50;2.97;;;;;;;;;;5152145;27;20957;-69
2023/09/26 03:37:50;;;;;;;56.57;3.03;;;;;;;;;;5152088;27;20460;-69
2023/09/26 03:40:19;;;;;;;57.00;2.70;;;;;;;;;;5152069;27;20447;-69
2023/09/26 03:42:46;;;;;;;56.67;2.67;;;;;;;;;;5152125;27;20928;-69
2023/09/26 03:45:13;;;;;;;57.93;3.33;;;;;;;;;;5152117;27;20828;-69
2023/09/26 03:47:40;;;;;;;56.80;2.60;;;;;;;;;;5152353;27;20468;-69
2023/09/26 03:50:08;;;;;;;56.37;2.60;;;;;;;;;;5151648;27;20459;-69
2023/09/26 03:52:35;;;;;;;56.80;2.80;;;;;;;;;;5152242;27;20440;-69
2023/09/26 03:55:03;;;;;;;56.63;2.57;;;;;;;;;;5151992;27;20756;-69
2023/09/26 03:57:32;;;;;;;56.80;2.80;;;;;;;;;;5152008;27;20487;-69
2023/09/26 03:59:59;;;;;;;55.93;2.60;;;;;;;;;;5151883;27;20548;-69
2023/09/26 04:02:27;;;;;;;57.37;2.80;;;;;;;;;;5151722;27;20491;-69
2023/09/26 04:04:54;;;;;;;56.80;2.90;;;;;;;;;;5151705;27;21104;-69
2023/09/26 04:07:22;;;;;;;56.50;2.57;;;;;;;;;;5155425;27;20467;-70
2023/09/26 04:09:49;;;;;;;57.83;4.50;;;;;;;;;;5155419;27;20446;-69
2023/09/26 04:12:16;;;;;;;57.00;2.60;;;;;;;;;;5155432;27;20442;-70
2023/09/26 04:14:44;;;;;;;56.17;2.70;;;;;;;;;;5156218;27;20450;-70
2023/09/26 04:17:11;;;;;;;61.73;3.13;;;;;;;;;;5126610;27;20735;-69
2023/09/26 04:19:38;;;;;;;57.17;2.67;;;;;;;;;;5134516;27;20444;-69
2023/09/26 04:22:06;;;;;;;56.73;2.90;;;;;;;;;;5134625;27;20485;-69
2023/09/26 04:24:33;;;;;;;56.33;2.73;;;;;;;;;;5134730;27;20819;-70
2023/09/26 04:27:00;;;;;;;57.47;2.90;;;;;;;;;;5134510;27;20825;-69
2023/09/26 04:29:28;;;;;;;56.90;2.93;;;;;;;;;;5134298;27;20459;-70
2023/09/26 04:31:56;;;;;;;56.90;3.00;;;;;;;;;;5134320;27;20441;-70
2023/09/26 04:34:27;;;;;;;56.70;2.53;;;;;;;;;;5134276;27;20509;-70
2023/09/26 04:36:54;;;;;;;56.60;2.40;;;;;;;;;;5134625;27;20445;-70
2023/09/26 04:39:21;;;;;;;56.47;2.93;;;;;;;;;;5133998;27;20944;-70
2023/09/26 04:41:48;;;;;;;56.70;2.93;;;;;;;;;;5134127;27;20483;-69
2023/09/26 04:44:15;;;;;;;56.70;2.70;;;;;;;;;;5134017;27;20440;-70
2023/09/26 04:46:42;;;;;;;56.70;2.50;;;;;;;;;;5134253;27;20467;-70
2023/09/26 04:49:11;;;;;;;56.87;2.83;;;;;;;;;;5133905;27;20936;-69
2023/09/26 04:51:38;;;;;;;57.17;3.10;;;;;;;;;;5134380;27;20441;-69
2023/09/26 04:54:05;;;;;;;56.80;2.80;;;;;;;;;;5134226;27;20441;-69
2023/09/26 04:56:32;;;;;;;56.40;2.63;;;;;;;;;;5134130;27;20952;-69
2023/09/26 04:58:59;;;;;;;56.37;2.30;;;;;;;;;;5133705;27;20461;-69
2023/09/26 05:01:27;;;;;;;56.70;2.67;;;;;;;;;;5134197;27;20485;-69
2023/09/26 05:03:54;;;;;;;56.47;2.97;;;;;;;;;;5133776;27;20445;-70
2023/09/26 05:06:22;;;;;;;56.57;2.90;;;;;;;;;;5133754;27;20950;-69
2023/09/26 05:08:50;;;;;;;56.90;2.57;;;;;;;;;;5133340;27;20472;-69
2023/09/26 05:11:17;;;;;;;56.80;2.80;;;;;;;;;;5133672;27;20477;-69
2023/09/26 05:13:45;;;;;;;56.30;2.50;;;;;;;;;;5133616;27;20448;-69
2023/09/26 05:16:12;;;;;;;56.60;2.67;;;;;;;;;;5125172;27;20468;-69
2023/09/26 05:18:40;;;;;;;56.33;2.50;;;;;;;;;;5133412;27;20471;-70
2023/09/26 05:21:07;;;;;;;57.10;2.87;;;;;;;;;;5133078;27;20492;-69
2023/09/26 05:23:35;;;;;;;57.40;4.60;;;;;;;;;;5133280;27;20448;-69
2023/09/26 05:26:06;;;;;;;59.30;2.70;;;;;;;;;;5133598;27;20449;-70
2023/09/26 05:28:33;;;;;;;56.43;2.70;;;;;;;;;;5133341;27;20627;-69
2023/09/26 05:31:00;;;;;;;56.83;2.83;;;;;;;;;;5133531;27;20447;-70
2023/09/26 05:33:28;;;;;;;57.27;3.40;;;;;;;;;;5133393;27;20447;-69
2023/09/26 05:35:56;;;;;;;56.37;2.87;;;;;;;;;;5133268;27;20463;-69
2023/09/26 05:38:24;;;;;;;57.10;3.00;;;;;;;;;;5132836;27;20464;-69
2023/09/26 05:40:53;;;;;;;56.80;2.57;;;;;;;;;;5133162;27;20865;-69
2023/09/26 05:43:20;;;;;;;56.50;2.60;;;;;;;;;;5133221;27;20437;-70
2023/09/26 05:45:51;;;;;;;56.80;2.70;;;;;;;;;;5133051;27;20815;-69
2023/09/26 05:48:18;;;;;;;56.67;3.00;;;;;;;;;;5132343;27;20472;-68
2023/09/26 05:50:45;;;;;;;56.40;2.87;;;;;;;;;;5131444;27;20452;-69
2023/09/26 05:53:12;;;;;;;56.60;2.77;;;;;;;;;;5133028;27;20441;-70
2023/09/26 05:55:39;;;;;;;56.80;3.00;;;;;;;;;;5132784;27;20444;-69
2023/09/26 05:58:08;;;;;;;56.80;3.00;;;;;;;;;;5132326;27;20475;-70
2023/09/26 06:00:37;;;;;;;56.87;3.10;;;;;;;;;;5132568;27;20445;-70
2023/09/26 06:03:04;;;;;;;56.70;2.80;;;;;;;;;;5134691;27;20936;-69
2023/09/26 06:05:31;;;;;;;56.87;3.07;;;;;;;;;;5153188;27;20432;-68
2023/09/26 06:07:58;;;;;;;57.10;2.70;;;;;;;;;;5153336;27;20460;-69
2023/09/26 06:10:25;;;;;;;56.80;3.00;;;;;;;;;;5153283;27;20443;-68
2023/09/26 06:12:54;;;;;;;57.00;2.90;;;;;;;;;;5153299;27;20436;-69
2023/09/26 06:15:23;;;;;;;57.13;3.13;;;;;;;;;;5153148;27;20454;-69
2023/09/26 06:17:51;;;;;;;57.00;3.67;;;;;;;;;;5152762;27;20467;-69
2023/09/26 06:20:18;;;;;;;56.70;2.60;;;;;;;;;;5153187;27;20455;-68
2023/09/26 06:22:45;;;;;;;56.60;2.60;;;;;;;;;;5153164;27;20863;-69
2023/09/26 06:25:12;;;;;;;56.80;2.47;;;;;;;;;;5152923;27;20442;-69
2023/09/26 06:27:39;;;;;;;58.07;2.77;;;;;;;;;;5152933;27;20475;-69
2023/09/26 06:30:06;;;;;;;56.43;2.30;;;;;;;;;;5152644;27;20440;-69
2023/09/26 06:32:35;;;;;;;56.60;2.43;;;;;;;;;;5152833;27;20489;-69
2023/09/26 06:35:02;;;;;;;58.40;3.03;;;;;;;;;;5152988;27;20455;-69
2023/09/26 06:37:29;;;;;;;57.57;3.20;;;;;;;;;;5152878;27;20468;-69
2023/09/26 06:40:00;;;;;;;57.00;3.03;;;;;;;;;;5152479;27;20750;-69
2023/09/26 06:42:27;;;;;;;56.60;2.57;;;;;;;;;;5152864;27;20566;-69
2023/09/26 06:44:54;;;;;;;57.37;2.90;;;;;;;;;;5152433;27;20454;-69
2023/09/26 06:47:21;;;;;;;56.67;2.70;;;;;;;;;;5152546;27;20464;-69
2023/09/26 06:49:49;;;;;;;57.10;2.90;;;;;;;;;;5152677;27;20451;-69
2023/09/26 06:52:16;;;;;;;57.07;2.77;;;;;;;;;;5152543;27;20938;-69
2023/09/26 06:54:43;;;;;;;57.57;3.20;;;;;;;;;;5152618;27;20443;-69
2023/09/26 06:57:15;;;;;;;57.40;3.73;;;;;;;;;;5152355;27;20456;-68
2023/09/26 06:59:42;;;;;;;56.57;2.67;;;;;;;;;;5152355;27;20451;-69
2023/09/26 07:02:09;;;;;;;56.90;3.00;;;;;;;;;;5152506;27;20492;-69
2023/09/26 07:04:36;;;;;;;56.37;2.23;;;;;;;;;;5152535;27;20984;-69
2023/09/26 07:07:05;;;;;;;56.60;2.97;;;;;;;;;;5152285;27;20460;-70
2023/09/26 07:09:32;;;;;;;56.37;2.30;;;;;;;;;;5152380;27;20447;-69
2023/09/26 07:11:59;;;;;;;57.37;3.87;;;;;;;;;;5152224;27;20432;-69
2023/09/26 07:14:26;;;;;;;57.50;2.53;;;;;;;;;;5152410;27;20439;-69
2023/09/26 07:16:53;;;;;;;57.20;3.80;;;;;;;;;;5152045;27;20819;-69
2023/09/26 07:19:20;;;;;;;57.10;3.30;;;;;;;;;;5152325;27;20839;-69
2023/09/26 07:21:47;;;;;;;56.53;2.60;;;;;;;;;;5152260;27;20546;-69
2023/09/26 07:24:16;;;;;;;56.77;3.03;;;;;;;;;;5152024;27;20495;-69
2023/09/26 07:26:43;;;;;;;57.60;3.60;;;;;;;;;;5151984;27;20440;-69
2023/09/26 07:29:10;;;;;;;56.80;3.00;;;;;;;;;;5152126;27;20471;-69
2023/09/26 07:31:39;;;;;;;57.83;3.70;;;;;;;;;;5152395;27;21041;-69
2023/09/26 07:34:06;;;;;;;56.70;2.77;;;;;;;;;;5152334;27;20444;-69
2023/09/26 07:36:34;;;;;;;57.00;3.60;;;;;;;;;;5152226;27;20440;-69
2023/09/26 07:39:01;;;;;;;57.13;3.00;;;;;;;;;;5151717;27;20562;-69
2023/09/26 07:41:29;;;;;;;58.77;3.47;;;;;;;;;;5155127;27;20450;-70
2023/09/26 07:43:56;;;;;;;56.90;2.93;;;;;;;;;;5155889;27;20994;-70
2023/09/26 07:46:23;;;;;;;57.43;3.53;;;;;;;;;;5156008;27;20851;-70
2023/09/26 07:48:50;;;;;;;58.23;2.90;;;;;;;;;;5155683;27;20464;-70
2023/09/26 07:51:18;;;;;;;57.17;3.30;;;;;;;;;;5145280;27;20565;-69
2023/09/26 07:53:45;;;;;;;57.50;3.40;;;;;;;;;;5134837;27;20463;-70
2023/09/26 07:56:13;;;;;;;57.67;4.10;;;;;;;;;;5134443;27;20444;-70
2023/09/26 07:58:41;;;;;;;57.20;3.10;;;;;;;;;;5134049;27;20468;-70
2023/09/26 08:01:09;;;;;;;58.47;4.50;;;;;;;;;;5134098;27;20449;-70
2023/09/26 08:03:38;;;;;;;57.93;3.40;;;;;;;;;;5134122;27;20496;-69
2023/09/26 08:06:05;;;;;;;56.80;3.30;;;;;;;;;;5134006;27;20543;-69
2023/09/26 08:08:33;;;;;;;57.53;3.80;;;;;;;;;;5133554;27;20468;-71
2023/09/26 08:11:07;;;;;;;56.60;2.60;;;;;;;;;;5134192;27;20440;-70
2023/09/26 08:13:35;;;;;;;56.80;3.10;;;;;;;;;;5133777;27;20975;-70
2023/09/26 08:16:03;;;;;;;57.50;3.73;;;;;;;;;;5134236;27;20493;-71
2023/09/26 08:18:30;;;;;;;57.20;2.97;;;;;;;;;;5132942;27;20836;-70
2023/09/26 08:20:58;;;;;;;56.80;3.10;;;;;;;;;;5133367;27;20445;-71
2023/09/26 08:23:25;;;;;;;62.13;3.50;;;;;;;;;;5133332;27;20574;-69
2023/09/26 08:25:56;;;;;;;59.00;3.73;;;;;;;;;;5134032;27;20501;-71
2023/09/26 08:28:23;;;;;;;57.47;2.93;;;;;;;;;;5134121;27;20456;-70
2023/09/26 08:30:56;;;;;;;56.50;2.93;;;;;;;;;;5133747;27;20437;-73
2023/09/26 08:33:24;;;;;;;56.83;3.00;;;;;;;;;;5133846;27;20444;-69
2023/09/26 08:35:52;;;;;;;56.57;2.60;;;;;;;;;;5133869;27;20452;-71
2023/09/26 08:38:19;;;;;;;56.13;2.30;;;;;;;;;;5133852;27;20464;-69
2023/09/26 08:40:46;;;;;;;56.57;2.73;;;;;;;;;;5134119;27;20445;-72
2023/09/26 08:43:14;;;;;;;57.97;3.13;;;;;;;;;;5133296;27;20480;-70
2023/09/26 08:45:42;;;;;;;57.07;3.13;;;;;;;;;;5134071;27;20449;-70
2023/09/26 08:48:09;;;;;;;56.70;3.10;;;;;;;;;;5133526;27;20464;-71
2023/09/26 08:50:37;;;;;;;56.63;2.70;;;;;;;;;;5133313;27;20449;-70
2023/09/26 08:53:05;;;;;;;56.70;2.80;;;;;;;;;;5133317;27;20459;-70
2023/09/26 08:55:32;;;;;;;57.80;3.40;;;;;;;;;;5134061;27;20967;-70
2023/09/26 08:57:59;;;;;;;56.87;2.80;;;;;;;;;;5133702;27;20472;-69
2023/09/26 09:00:28;;;;;;;56.90;2.67;;;;;;;;;;5133419;27;20441;-71
2023/09/26 09:02:55;;;;;;;56.87;2.70;;;;;;;;;;5133067;27;20506;-71
2023/09/26 09:05:22;;;;;;;57.50;2.93;;;;;;;;;;5133675;27;20445;-70
2023/09/26 09:07:51;;;;;;;57.80;3.70;;;;;;;;;;5133141;27;21056;-71
2023/09/26 09:10:18;;;;;;;56.70;2.57;;;;;;;;;;5132152;27;20471;-70
2023/09/26 09:12:47;;;;;;;57.07;3.07;;;;;;;;;;5131476;27;20453;-70
2023/09/26 09:15:22;;;;;;;57.17;3.40;;;;;;;;;;5129287;27;20454;-70
2023/09/26 09:17:50;;;;;;;57.87;3.00;;;;;;;;;;5124675;27;20472;-69
2023/09/26 09:20:29;;;;;;;57.10;3.43;;;;;;;;;;5130527;27;20956;-70
2023/09/26 09:23:01;;;;;;;59.53;3.90;;;;;;;;;;5128350;27;20477;-70
2023/09/26 09:25:31;;;;;;;56.90;2.90;;;;;;;;;;5129982;27;20919;-70
2023/09/26 09:28:00;;;;;;;57.63;3.53;;;;;;;;;;5123850;27;20477;-70
2023/09/26 09:30:28;;;;;;;56.50;2.60;;;;;;;;;;5120798;27;20471;-70
2023/09/26 09:32:55;;;;;;;62.40;3.60;;;;;;;;;;5124972;27;20434;-70
2023/09/26 09:35:22;;;;;;;56.80;2.70;;;;;;;;;;5124915;27;20457;-70
2023/09/26 09:37:50;;;;;;;57.20;3.07;;;;;;;;;;5122307;27;20469;-70
2023/09/26 09:40:20;;;;;;;58.10;3.00;;;;;;;;;;5123726;27;20461;-70
2023/09/26 09:42:49;;;;;;;56.67;2.63;;;;;;;;;;5133045;27;20480;-70
2023/09/26 09:45:16;;;;;;;56.17;2.20;;;;;;;;;;5132865;27;20856;-71
2023/09/26 09:47:45;;;;;;;56.57;2.17;;;;;;;;;;5132757;27;20479;-70
2023/09/26 09:50:13;;;;;;;56.63;2.87;;;;;;;;;;5132382;27;20467;-69
2023/09/26 09:52:43;;;;;;;56.30;2.23;;;;;;;;;;5133219;27;20439;-69
2023/09/26 09:55:14;;;;;;;57.37;2.63;;;;;;;;;;5132933;27;20440;-70
2023/09/26 09:57:46;;;;;;;56.07;1.97;;;;;;;;;;5132655;27;20548;-70
2023/09/26 10:00:14;;;;;;;56.80;2.10;;;;;;;;;;5132536;27;20436;-69
2023/09/26 10:02:43;;;;;;;56.20;2.10;;;;;;;;;;5131833;27;20572;-69
2023/09/26 10:05:12;;;;;;;56.50;2.30;;;;;;;;;;5132460;27;20799;-70
2023/09/26 10:07:40;;;;;;;56.07;2.00;;;;;;;;;;5132485;27;20468;-69
2023/09/26 10:10:09;;;;;;;56.27;2.20;;;;;;;;;;5132433;27;20805;-70
2023/09/26 10:12:37;;;;;;;55.80;1.83;;;;;;;;;;5132491;27;20639;-70
2023/09/26 10:15:09;;;;;;;55.73;2.40;;;;;;;;;;5132604;27;20445;-70
2023/09/26 10:17:36;;;;;;;55.53;2.00;;;;;;;;;;5132044;27;20470;-70
2023/09/26 10:20:05;;;;;;;55.67;2.30;;;;;;;;;;5132249;27;20493;-70
2023/09/26 10:22:34;;;;;;;56.10;2.00;;;;;;;;;;5132464;27;20928;-70
2023/09/26 10:25:02;;;;;;;55.47;2.03;;;;;;;;;;5132374;27;20447;-70
2023/09/26 10:27:39;;;;;;;55.47;1.93;;;;;;;;;;5132099;27;20465;-70
2023/09/26 10:30:10;;;;;;;55.50;1.90;;;;;;;;;;5132059;27;20436;-71
2023/09/26 10:32:39;;;;;;;55.50;1.83;;;;;;;;;;5132286;27;20533;-68
2023/09/26 10:35:22;;;;;;;55.10;1.73;;;;;;;;;;5132097;27;20537;-70
2023/09/26 10:37:50;;;;;;;54.73;1.70;;;;;;;;;;5131689;27;20491;-70
2023/09/26 10:40:17;;;;;;;55.17;2.10;;;;;;;;;;5131455;27;20445;-70
2023/09/26 10:42:45;;;;;;;55.47;2.17;;;;;;;;;;5131881;27;20447;-69
2023/09/26 10:45:14;;;;;;;55.10;1.97;;;;;;;;;;5132079;27;20451;-69
2023/09/26 10:47:41;;;;;;;55.03;1.90;;;;;;;;;;5131687;27;20968;-70
2023/09/26 10:50:12;;;;;;;55.40;1.90;;;;;;;;;;5131744;27;20457;-70
2023/09/26 10:52:41;;;;;;;55.37;2.00;;;;;;;;;;5131777;27;20492;-70
2023/09/26 10:55:09;;;;;;;55.30;2.20;;;;;;;;;;5132141;27;20456;-70
2023/09/26 10:57:39;;;;;;;55.30;1.90;;;;;;;;;;5131614;27;20469;-70
2023/09/26 11:00:08;;;;;;;55.07;1.93;;;;;;;;;;5131469;27;20532;-69
2023/09/26 11:02:37;;;;;;;55.00;1.77;;;;;;;;;;5131628;27;20936;-70
2023/09/26 11:05:06;;;;;;;54.80;1.80;;;;;;;;;;5132008;27;20452;-70
2023/09/26 11:07:33;;;;;;;54.80;1.70;;;;;;;;;;5131506;27;20547;-71
2023/09/26 11:10:00;;;;;;;55.30;1.87;;;;;;;;;;5131692;27;20445;-68
2023/09/26 11:12:27;;;;;;;55.07;1.73;;;;;;;;;;5131629;27;20815;-70
2023/09/26 11:14:55;;;;;;;54.90;1.70;;;;;;;;;;5133238;27;20471;-69
2023/09/26 11:17:23;;;;;;;55.27;2.30;;;;;;;;;;5135731;27;20992;-69
2023/09/26 11:19:52;;;;;;;54.93;2.10;;;;;;;;;;5135670;27;20531;-70
2023/09/26 11:22:19;;;;;;;54.80;2.07;;;;;;;;;;5136042;27;20448;-69
2023/09/26 11:24:46;;;;;;;54.80;2.13;;;;;;;;;;5135813;27;20226;-69
2023/09/26 11:27:13;;;;;;;54.83;2.10;;;;;;;;;;5135466;27;20461;-70
2023/09/26 11:29:42;;;;;;;54.87;2.03;;;;;;;;;;5135599;27;20807;-69
2023/09/26 11:32:09;;;;;;;55.00;1.73;;;;;;;;;;5135623;27;20440;-69
2023/09/26 11:34:37;;;;;;;55.57;1.90;;;;;;;;;;5135289;27;20537;-69
2023/09/26 11:37:08;;;;;;;54.80;1.60;;;;;;;;;;5135524;27;20529;-70
2023/09/26 11:39:35;;;;;;;55.83;1.70;;;;;;;;;;5135330;27;20488;-70
2023/09/26 11:42:03;;;;;;;55.10;1.80;;;;;;;;;;5135393;27;20448;-69
2023/09/26 11:44:30;;;;;;;55.43;2.07;;;;;;;;;;5135300;27;20451;-70
2023/09/26 11:46:58;;;;;;;55.50;1.67;;;;;;;;;;5135121;27;20480;-69
2023/09/26 11:49:25;;;;;;;55.47;1.60;;;;;;;;;;5134963;27;21613;-67
2023/09/26 11:51:53;;;;;;;54.97;1.70;;;;;;;;;;5135449;27;20502;-70
2023/09/26 11:54:21;;;;;;;54.90;1.77;;;;;;;;;;5135113;27;20515;-70
2023/09/26 11:56:49;;;;;;;54.90;1.80;;;;;;;;;;5135354;27;20966;-69
2023/09/26 11:59:16;;;;;;;54.60;1.57;;;;;;;;;;5134926;27;20444;-70
2023/09/26 12:01:43;;;;;;;54.93;1.80;;;;;;;;;;5135028;27;20448;-70
2023/09/26 12:04:11;;;;;;;56.33;2.93;;;;;;;;;;5134804;27;20813;-70
2023/09/26 12:06:40;;;;;;;55.03;1.80;;;;;;;;;;5135389;27;20516;-70
2023/09/26 12:09:09;;;;;;;54.80;1.70;;;;;;;;;;5134798;27;20453;-69
2023/09/26 12:11:37;;;;;;;54.80;1.77;;;;;;;;;;5134881;27;20448;-70
2023/09/26 12:14:04;;;;;;;54.50;1.60;;;;;;;;;;5134657;27;20478;-69
2023/09/26 12:16:32;;;;;;;54.80;2.00;;;;;;;;;;5134900;27;20441;-69
2023/09/26 12:18:59;;;;;;;54.50;1.80;;;;;;;;;;5134667;27;20460;-70
2023/09/26 12:21:26;;;;;;;54.50;1.80;;;;;;;;;;5134737;27;20437;-70
2023/09/26 12:23:53;;;;;;;54.47;1.70;;;;;;;;;;5134475;27;20443;-68
2023/09/26 12:26:20;;;;;;;54.60;1.80;;;;;;;;;;5133724;27;20494;-69
2023/09/26 12:28:49;;;;;;;54.57;1.87;;;;;;;;;;5134056;27;20491;-69
2023/09/26 12:31:16;;;;;;;55.20;2.20;;;;;;;;;;5134738;27;20451;-69
2023/09/26 12:33:43;;;;;;;54.67;2.20;;;;;;;;;;5134459;27;20478;-69
2023/09/26 12:36:11;;;;;;;54.67;2.00;;;;;;;;;;5134563;27;20486;-69
2023/09/26 12:38:38;;;;;;;54.47;1.90;;;;;;;;;;5134101;27;20464;-69
2023/09/26 12:41:05;;;;;;;54.37;1.80;;;;;;;;;;5134264;27;20455;-70
2023/09/26 12:43:33;;;;;;;54.60;1.77;;;;;;;;;;5134231;27;20919;-70
2023/09/26 12:46:01;;;;;;;54.50;1.70;;;;;;;;;;5134286;27;20505;-70
2023/09/26 12:48:28;;;;;;;54.67;1.80;;;;;;;;;;5133947;27;20468;-69
2023/09/26 12:50:56;;;;;;;54.60;1.90;;;;;;;;;;5133987;27;20948;-70
2023/09/26 12:53:23;;;;;;;54.67;1.80;;;;;;;;;;5133916;27;20441;-70
2023/09/26 12:55:51;;;;;;;54.90;1.90;;;;;;;;;;5133903;27;20976;-70
2023/09/26 12:58:18;;;;;;;54.90;1.90;;;;;;;;;;5133937;27;20465;-69
2023/09/26 13:00:45;;;;;;;54.80;1.60;;;;;;;;;;5133734;27;20441;-68
2023/09/26 13:03:14;;;;;;;54.83;2.30;;;;;;;;;;5133692;27;20455;-70
2023/09/26 13:05:41;;;;;;;55.00;2.10;;;;;;;;;;5133854;27;20451;-70
2023/09/26 13:08:08;;;;;;;54.60;1.90;;;;;;;;;;5141831;27;20467;-70
2023/09/26 13:10:36;;;;;;;54.60;1.57;;;;;;;;;;5154520;27;20784;-69
2023/09/26 13:13:03;;;;;;;54.47;1.90;;;;;;;;;;5154558;27;20447;-70
2023/09/26 13:15:31;;;;;;;54.47;1.80;;;;;;;;;;5154209;27;20488;-70
2023/09/26 13:17:58;;;;;;;54.50;2.10;;;;;;;;;;5154186;27;20858;-70
2023/09/26 13:20:27;;;;;;;54.40;2.00;;;;;;;;;;5154104;27;20444;-70
2023/09/26 13:22:54;;;;;;;54.67;1.87;;;;;;;;;;5154023;27;20807;-70
2023/09/26 13:25:21;;;;;;;55.10;1.77;;;;;;;;;;5154073;27;20499;-70
2023/09/26 13:27:48;;;;;;;54.50;1.83;;;;;;;;;;5154044;27;20939;-70
2023/09/26 13:30:17;;;;;;;54.50;1.70;;;;;;;;;;5154172;27;20877;-70
2023/09/26 13:32:44;;;;;;;54.97;2.10;;;;;;;;;;5154187;27;20447;-71
2023/09/26 13:35:11;;;;;;;54.73;1.70;;;;;;;;;;5153761;27;20480;-69
2023/09/26 13:37:39;;;;;;;54.97;1.70;;;;;;;;;;5153575;27;20474;-69
2023/09/26 13:40:07;;;;;;;55.07;1.70;;;;;;;;;;5153886;27;20447;-69
2023/09/26 13:42:34;;;;;;;54.90;1.70;;;;;;;;;;5154020;27;20444;-69
2023/09/26 13:45:02;;;;;;;54.80;1.93;;;;;;;;;;5153703;27;21041;-69
2023/09/26 13:47:29;;;;;;;55.40;2.23;;;;;;;;;;5153513;27;20617;-70
2023/09/26 13:49:56;;;;;;;54.50;1.97;;;;;;;;;;5153226;27;20463;-71
2023/09/26 13:52:23;;;;;;;54.53;1.70;;;;;;;;;;5153805;27;20440;-69
2023/09/26 13:54:52;;;;;;;54.70;1.70;;;;;;;;;;5153578;27;20480;-69
2023/09/26 13:57:19;;;;;;;54.57;2.00;;;;;;;;;;5153214;27;21043;-69
2023/09/26 13:59:47;;;;;;;55.07;2.00;;;;;;;;;;5153375;27;20458;-69
2023/09/26 14:02:14;;;;;;;54.73;1.97;;;;;;;;;;5153416;27;20444;-69
2023/09/26 14:04:42;;;;;;;54.90;2.67;;;;;;;;;;5153242;27;20444;-70
2023/09/26 14:07:09;;;;;;;54.50;1.80;;;;;;;;;;5153317;27;20463;-70
2023/09/26 14:09:36;;;;;;;54.40;1.70;;;;;;;;;;5153020;27;20564;-70
2023/09/26 14:12:06;;;;;;;54.37;1.67;;;;;;;;;;5153112;27;21001;-70
2023/09/26 14:14:33;;;;;;;54.50;1.60;;;;;;;;;;5153125;27;20471;-69
2023/09/26 14:17:00;;;;;;;54.80;1.77;;;;;;;;;;5152872;27;20467;-69
2023/09/26 14:19:27;;;;;;;55.27;2.20;;;;;;;;;;5153130;27;20454;-69
2023/09/26 14:21:55;;;;;;;55.00;2.23;;;;;;;;;;5152989;27;20450;-68
2023/09/26 14:24:22;;;;;;;54.67;1.80;;;;;;;;;;5152780;27;20444;-69
2023/09/26 14:26:51;;;;;;;54.90;1.73;;;;;;;;;;5152651;27;20439;-69
2023/09/26 14:29:21;;;;;;;55.10;1.90;;;;;;;;;;5152562;27;20491;-69
2023/09/26 14:31:48;;;;;;;55.17;1.77;;;;;;;;;;5152948;27;20479;-69
2023/09/26 14:34:15;;;;;;;54.57;1.57;;;;;;;;;;5152765;27;20480;-70
2023/09/26 14:36:42;;;;;;;55.17;1.77;;;;;;;;;;5152751;27;20451;-68